Time;durP1;ratioP1;P1;durP2;ratioP2;P2;SDS_P1;SDS_P2;PMS_P1;PMS_P2;Temp;Humidity;BMP_temperature;BMP_pressure;BME280_temperature;BME280_humidity;BME280_pressure;Samples;Min_cycle;Max_cycle;Signal;HPM_P1;HPM_P2
2022/12/22 03:26:49;;;;;;;78.97;26.63;;;;;;;7.66;100.00;149383.69;5029537;28;20045;-77
2022/12/22 03:29:15;;;;;;;73.50;26.77;;;;;;;7.61;100.00;149373.31;5030763;28;20037;-77
2022/12/22 03:31:40;;;;;;;76.97;26.33;;;;;;;7.70;100.00;149394.00;5029306;28;20034;-77
2022/12/22 03:34:06;;;;;;;79.83;28.07;;;;;;;7.63;100.00;149378.53;5030534;28;20021;-77
2022/12/22 03:36:31;;;;;;;78.13;26.90;;;;;;;7.66;100.00;149384.97;5033268;28;20044;-78
2022/12/22 03:38:57;;;;;;;75.57;28.37;;;;;;;7.61;100.00;149373.31;5029863;28;20128;-77
2022/12/22 03:46:50;;;;;;;74.80;28.43;;;;;;;7.80;100.00;149419.84;5030330;28;20028;-78
2022/12/22 03:49:18;;;;;;;71.00;24.97;;;;;;;7.82;100.00;149426.28;5026271;28;20029;-77
2022/12/22 03:51:48;;;;;;;65.40;25.03;;;;;;;7.74;100.00;149404.31;5035330;28;20036;-77
2022/12/22 03:54:24;;;;;;;73.13;26.87;;;;;;;7.60;100.00;149370.72;5052822;28;20029;-77
2022/12/22 03:56:51;;;;;;;55.80;23.27;;;;;;;7.53;100.00;149352.66;5037697;28;20490;-75
2022/12/22 03:59:17;;;;;;;65.83;23.73;;;;;;;7.59;100.00;149366.84;5033785;28;20159;-77
2022/12/22 04:01:46;;;;;;;81.00;28.07;;;;;;;7.46;100.00;149334.56;5033745;28;20058;-77
2022/12/22 04:04:13;;;;;;;100.10;29.97;;;;;;;7.43;100.00;149325.53;5032960;28;20025;-77
2022/12/22 04:06:39;;;;;;;91.97;29.40;;;;;;;7.49;100.00;149341.00;5032065;28;20033;-77
2022/12/22 04:09:05;;;;;;;100.27;30.80;;;;;;;7.53;100.00;149351.38;5034003;28;20495;-77
2022/12/22 04:14:15;;;;;;;103.60;30.17;;;;;;;7.54;100.00;149355.25;5040324;28;20032;-77
2022/12/22 04:16:40;;;;;;;103.57;30.53;;;;;;;7.54;100.00;149355.25;5033362;28;20400;-75
2022/12/22 04:19:06;;;;;;;110.70;31.97;;;;;;;7.63;100.00;149378.53;5033776;28;20443;-76
2022/12/22 04:21:32;;;;;;;104.17;30.40;;;;;;;7.66;100.00;149384.97;5032514;28;20022;-78
2022/12/22 04:23:57;;;;;;;107.53;30.97;;;;;;;7.67;100.00;149386.25;5033857;28;20024;-78
2022/12/22 04:26:24;;;;;;;122.53;32.90;;;;;;;7.69;100.00;149392.72;5033710;28;20051;-77
2022/12/22 04:28:50;;;;;;;108.57;32.40;;;;;;;7.69;100.00;149392.72;5033648;28;20025;-77
2022/12/22 04:31:16;;;;;;;120.00;33.00;;;;;;;7.69;100.00;149391.41;5030620;28;20022;-78
2022/12/22 04:33:41;;;;;;;118.70;32.87;;;;;;;7.74;100.00;149404.31;5033364;28;20062;-77
2022/12/22 04:36:08;;;;;;;114.87;32.40;;;;;;;7.72;100.00;149399.16;5046105;28;20480;-77
2022/12/22 04:38:34;;;;;;;122.73;32.70;;;;;;;7.73;100.00;149401.75;5027478;28;20036;-77
2022/12/22 04:40:59;;;;;;;135.13;33.07;;;;;;;7.67;100.00;149387.56;5033159;28;20029;-78
2022/12/22 04:43:24;;;;;;;129.17;32.07;;;;;;;7.57;100.00;149361.69;5032815;28;20032;-77
2022/12/22 04:45:54;;;;;;;112.10;32.07;;;;;;;7.50;100.00;149344.88;5032923;28;20061;-77
2022/12/22 04:48:20;;;;;;;111.20;32.20;;;;;;;7.44;100.00;149329.41;5034487;28;20358;-77
2022/12/22 04:50:50;;;;;;;116.97;32.27;;;;;;;7.41;100.00;149320.38;5033230;28;20105;-75
2022/12/22 04:53:16;;;;;;;110.00;31.57;;;;;;;7.38;100.00;149313.88;5029119;28;20033;-78
2022/12/22 04:55:49;;;;;;;123.53;32.43;;;;;;;7.41;100.00;149321.66;5032644;28;20378;-77
2022/12/22 04:58:15;;;;;;;119.30;33.03;;;;;;;7.41;100.00;149320.38;5032383;28;20025;-77
2022/12/22 05:00:41;;;;;;;125.90;33.87;;;;;;;7.41;100.00;149321.66;5031477;28;20490;-78
2022/12/22 05:03:07;;;;;;;127.13;32.37;;;;;;;7.46;100.00;149334.56;5031103;28;20094;-77
2022/12/22 05:05:33;;;;;;;131.00;33.43;;;;;;;7.48;100.00;149339.72;5011523;28;20034;-77
2022/12/22 05:07:58;;;;;;;125.27;32.93;;;;;;;7.50;100.00;149344.88;5039779;28;20460;-78
2022/12/22 05:10:24;;;;;;;131.87;31.53;;;;;;;7.52;100.00;149350.09;5041705;28;20045;-78
2022/12/22 05:12:55;;;;;;;129.60;32.10;;;;;;;7.51;100.00;149347.50;5031405;28;20021;-77
2022/12/22 05:15:26;;;;;;;117.85;31.45;;;;;;;7.52;100.00;149348.81;5028870;28;20539;-78
2022/12/22 05:17:52;;;;;;;134.90;33.55;;;;;;;7.49;100.00;149342.31;5024008;28;20353;-77
2022/12/22 05:20:18;;;;;;;114.77;31.33;;;;;;;7.48;100.00;149339.72;5029136;28;20025;-78
2022/12/22 05:22:44;;;;;;;146.00;33.80;;;;;;;7.47;100.00;149337.16;5035862;28;20078;-78
2022/12/22 05:25:10;;;;;;;154.40;33.00;;;;;;;7.42;100.00;149324.25;5038842;28;20060;-77
2022/12/22 05:27:35;;;;;;;142.03;33.13;;;;;;;7.41;100.00;149321.66;5028307;28;20480;-77
2022/12/22 05:30:01;;;;;;;130.03;31.63;;;;;;;7.44;100.00;149328.13;5032535;28;20017;-77
2022/12/22 05:32:27;;;;;;;153.90;33.07;;;;;;;7.43;100.00;149325.53;5028275;28;20030;-78
2022/12/22 05:34:52;;;;;;;128.00;32.47;;;;;;;7.44;100.00;149329.41;5039834;28;20022;-77
2022/12/22 05:37:17;;;;;;;140.67;34.37;;;;;;;7.53;100.00;149351.38;5027033;28;20108;-77
2022/12/22 05:39:43;;;;;;;142.90;33.33;;;;;;;7.56;100.00;149360.41;5029845;28;20445;-76
2022/12/22 05:42:08;;;;;;;143.30;33.07;;;;;;;7.58;100.00;149365.56;5032059;28;20025;-77
2022/12/22 05:44:34;;;;;;;128.90;33.17;;;;;;;7.63;100.00;149377.19;5035132;28;20013;-77
2022/12/22 05:46:59;;;;;;;152.07;34.53;;;;;;;7.60;100.00;149369.44;5042623;28;20037;-77
2022/12/22 05:49:24;;;;;;;140.00;33.43;;;;;;;7.58;100.00;149365.56;5030081;28;20696;-77
2022/12/22 05:51:52;;;;;;;134.27;32.77;;;;;;;7.56;100.00;149359.13;5032003;28;20033;-77
2022/12/22 05:54:18;;;;;;;153.67;34.80;;;;;;;7.53;100.00;149352.66;5029931;28;20036;-78
2022/12/22 05:56:43;;;;;;;172.87;35.40;;;;;;;7.54;100.00;149355.25;5038800;28;20033;-75
2022/12/22 05:59:10;;;;;;;161.63;35.93;;;;;;;7.51;100.00;149347.50;5050952;28;20026;-77
2022/12/22 06:01:35;;;;;;;153.17;33.33;;;;;;;7.53;100.00;149351.38;5037166;28;20036;-76
2022/12/22 06:04:02;;;;;;;141.23;33.17;;;;;;;7.55;100.00;149357.84;5031277;28;20031;-76
2022/12/22 06:06:28;;;;;;;148.20;35.13;;;;;;;7.55;100.00;149357.84;5044448;28;20529;-75
2022/12/22 06:08:53;;;;;;;155.33;33.73;;;;;;;7.56;100.00;149360.41;5026750;28;20132;-78
2022/12/22 06:11:19;;;;;;;161.23;32.63;;;;;;;7.59;100.00;149366.84;5032072;28;20021;-76
2022/12/22 06:13:45;;;;;;;169.27;34.57;;;;;;;7.59;100.00;149368.16;5031460;28;20374;-76
2022/12/22 06:16:10;;;;;;;160.63;35.60;;;;;;;7.59;100.00;149366.84;5029401;28;20032;-77
2022/12/22 06:18:36;;;;;;;164.47;35.63;;;;;;;7.62;100.00;149375.88;5025225;28;20469;-77
2022/12/22 06:21:02;;;;;;;172.90;36.53;;;;;;;7.69;100.00;149392.72;5030567;28;20037;-77
2022/12/22 06:23:27;;;;;;;158.67;34.77;;;;;;;7.64;100.00;149381.09;5031101;28;20495;-77
2022/12/22 06:25:58;;;;;;;161.17;35.13;;;;;;;7.66;100.00;149384.97;5041654;28;20103;-77
2022/12/22 06:28:24;;;;;;;173.50;36.17;;;;;;;7.64;100.00;149381.09;5037240;28;20059;-76
2022/12/22 06:30:50;;;;;;;205.87;36.03;;;;;;;7.60;100.00;149369.44;5030715;28;20668;-77
2022/12/22 06:33:15;;;;;;;298.10;40.50;;;;;;;7.55;100.00;149357.84;5029024;28;20036;-76
2022/12/22 06:35:40;;;;;;;194.97;36.97;;;;;;;7.55;100.00;149357.84;5030839;28;20091;-77
2022/12/22 06:38:06;;;;;;;178.23;35.73;;;;;;;7.63;100.00;149378.53;5027470;28;20120;-76
2022/12/22 06:40:31;;;;;;;195.87;37.77;;;;;;;7.68;100.00;149388.84;5029654;28;20029;-76
2022/12/22 06:43:08;;;;;;;205.40;38.93;;;;;;;7.69;100.00;149391.41;5030931;28;20084;-75
2022/12/22 06:45:42;;;;;;;185.70;36.73;;;;;;;7.68;100.00;149390.13;5035831;28;20026;-76
2022/12/22 06:48:09;;;;;;;223.97;38.60;;;;;;;7.69;100.00;149391.41;5027742;28;20061;-75
2022/12/22 06:50:34;;;;;;;194.23;35.13;;;;;;;7.69;100.00;149392.72;5028986;28;20040;-76
2022/12/22 06:53:00;;;;;;;243.27;37.97;;;;;;;7.60;100.00;149370.72;5030724;28;20136;-75
2022/12/22 06:55:26;;;;;;;757.10;51.10;;;;;;;7.26;100.00;149284.16;5027073;28;20492;-76
2022/12/22 06:57:51;;;;;;;216.83;37.17;;;;;;;7.20;100.00;149268.69;5030591;28;20033;-76
2022/12/22 07:00:17;;;;;;;377.83;41.27;;;;;;;7.21;100.00;149270.00;5030042;28;20120;-76
2022/12/22 07:02:42;;;;;;;241.30;37.40;;;;;;;7.29;100.00;149291.97;5028628;28;20055;-75
2022/12/22 07:05:08;;;;;;;234.40;37.70;;;;;;;7.36;100.00;149308.72;5029580;28;20067;-75
2022/12/22 07:07:33;;;;;;;214.57;40.20;;;;;;;7.45;100.00;149332.00;5013362;28;20393;-75
2022/12/22 07:09:59;;;;;;;247.50;41.17;;;;;;;7.50;100.00;149343.59;5036460;28;20516;-75
2022/12/22 07:12:25;;;;;;;242.50;40.60;;;;;;;7.52;100.00;149350.09;5038731;28;20455;-75
2022/12/22 07:14:50;;;;;;;233.07;39.80;;;;;;;7.57;100.00;149363.00;5032546;28;20031;-75
2022/12/22 07:17:15;;;;;;;206.97;39.33;;;;;;;7.62;100.00;149375.88;5027514;28;20390;-75
2022/12/22 07:19:41;;;;;;;206.67;39.30;;;;;;;7.65;100.00;149382.38;5007100;28;20076;-75
2022/12/22 07:22:06;;;;;;;205.27;37.27;;;;;;;7.69;100.00;149392.72;5025280;28;20033;-74
2022/12/22 07:24:32;;;;;;;223.83;36.97;;;;;;;7.67;100.00;149387.56;5028368;28;20101;-74
2022/12/22 07:26:57;;;;;;;214.30;37.87;;;;;;;7.64;100.00;149381.09;5029684;28;20220;-75
2022/12/22 07:29:22;;;;;;;191.17;38.63;;;;;;;7.64;100.00;149381.09;5030348;28;20121;-75
2022/12/22 07:31:48;;;;;;;188.57;36.70;;;;;;;7.74;100.00;149404.31;5025019;28;20083;-75
2022/12/22 07:34:13;;;;;;;209.27;37.80;;;;;;;7.81;100.00;149422.44;5030589;28;20032;-75
2022/12/22 07:36:39;;;;;;;191.20;35.93;;;;;;;7.77;100.00;149412.09;5029823;28;20460;-74
2022/12/22 07:39:04;;;;;;;191.17;36.40;;;;;;;7.82;100.00;149425.00;5034825;28;20051;-75
2022/12/22 07:44:14;;;;;;;186.40;34.90;;;;;;;7.83;100.00;149427.59;5036864;28;20036;-75
2022/12/22 07:46:39;;;;;;;191.83;36.10;;;;;;;7.87;100.00;149437.91;5039971;28;20465;-75
2022/12/22 07:51:50;;;;;;;193.37;36.77;;;;;;;7.92;100.00;149452.16;5040481;28;20051;-75
2022/12/22 07:54:16;;;;;;;205.93;39.03;;;;;;;7.98;100.00;149466.34;5022330;28;20068;-75
2022/12/22 07:56:43;;;;;;;262.77;36.97;;;;;;;7.92;100.00;149452.16;5031437;28;20037;-75
2022/12/22 07:59:09;;;;;;;729.57;46.27;;;;;;;7.74;100.00;149405.59;5033142;28;20112;-74
2022/12/22 08:01:35;;;;;;;529.93;42.33;;;;;;;7.61;100.00;149373.31;5016242;28;20124;-74
2022/12/22 08:04:00;;;;;;;443.83;38.57;;;;;;;7.57;100.00;149363.00;5015937;28;20462;-75
2022/12/22 08:06:26;;;;;;;279.83;36.27;;;;;;;7.54;100.00;149355.25;5044038;28;20585;-75
2022/12/22 08:08:51;;;;;;;538.93;41.70;;;;;;;7.54;100.00;149353.97;5036504;28;20021;-75
2022/12/22 08:11:17;;;;;;;330.10;35.53;;;;;;;7.55;100.00;149357.84;5032205;28;20116;-74
2022/12/22 08:13:42;;;;;;;309.60;35.93;;;;;;;7.57;100.00;149363.00;5036361;28;20449;-75
2022/12/22 08:16:10;;;;;;;201.93;37.87;;;;;;;7.77;100.00;149412.09;5033093;28;20104;-74
2022/12/22 08:18:36;;;;;;;212.57;38.83;;;;;;;7.96;100.00;149461.19;5028793;28;20120;-75
2022/12/22 08:21:03;;;;;;;231.23;41.73;;;;;;;8.06;100.00;149487.03;5029695;28;20057;-75
2022/12/22 08:23:28;;;;;;;210.13;38.30;;;;;;;8.07;100.00;149489.63;5032427;28;20033;-73
2022/12/22 08:26:05;;;;;;;237.07;41.80;;;;;;;8.12;100.00;149502.56;5033713;28;20583;-75
2022/12/22 08:28:35;;;;;;;262.80;37.67;;;;;;;8.09;100.00;149494.78;5029564;28;20044;-74
2022/12/22 08:31:02;;;;;;;201.20;37.97;;;;;;;8.05;100.00;149484.44;5041248;28;20037;-75
2022/12/22 08:33:28;;;;;;;216.40;36.83;;;;;;;8.06;100.00;149487.03;5029759;28;20389;-75
2022/12/22 08:35:54;;;;;;;232.17;38.40;;;;;;;8.11;100.00;149499.94;5029722;28;20040;-75
2022/12/22 08:38:20;;;;;;;215.77;39.77;;;;;;;8.25;100.00;149533.59;5031476;28;20034;-74
2022/12/22 08:40:46;;;;;;;238.63;39.87;;;;;;;8.26;100.00;149536.16;5040007;28;20492;-75
2022/12/22 08:43:12;;;;;;;255.27;39.97;;;;;;;8.28;100.00;149541.34;5039372;28;20035;-75
2022/12/22 08:45:37;;;;;;;216.77;39.20;;;;;;;8.34;100.00;149558.16;5028394;28;20021;-75
2022/12/22 08:48:03;;;;;;;251.53;39.80;;;;;;;8.35;100.00;149559.44;5044439;28;20033;-75
2022/12/22 08:50:28;;;;;;;239.23;40.20;;;;;;;8.37;100.00;149565.94;5032743;28;20468;-75
2022/12/22 08:53:02;;;;;;;256.03;39.03;;;;;;;8.37;100.00;149564.66;5032744;28;20063;-75
2022/12/22 08:55:27;;;;;;;230.93;38.00;;;;;;;8.34;100.00;149556.81;5032179;28;20156;-75
2022/12/22 08:57:52;;;;;;;259.77;41.23;;;;;;;8.35;100.00;149559.44;5035778;28;20481;-76
2022/12/22 09:00:18;;;;;;;228.27;37.67;;;;;;;8.32;100.00;149551.66;5035310;28;20059;-74
2022/12/22 09:02:43;;;;;;;274.03;42.47;;;;;;;8.33;100.00;149554.25;5030726;28;20036;-74
2022/12/22 09:05:09;;;;;;;269.50;42.00;;;;;;;8.35;100.00;149559.44;5032722;28;20029;-74
2022/12/22 09:07:34;;;;;;;276.03;42.57;;;;;;;8.36;100.00;149562.03;5029350;28;20315;-74
2022/12/22 09:09:59;;;;;;;265.63;39.47;;;;;;;8.33;100.00;149554.25;5032966;28;20112;-73
2022/12/22 09:12:25;;;;;;;253.27;38.63;;;;;;;8.38;100.00;149568.53;5034432;28;20025;-73
2022/12/22 09:14:50;;;;;;;272.40;40.20;;;;;;;8.43;100.00;149580.16;5034840;28;20082;-73
2022/12/22 09:17:16;;;;;;;232.10;38.80;;;;;;;8.48;100.00;149594.41;5040306;28;20044;-74
2022/12/22 09:19:41;;;;;;;234.30;35.97;;;;;;;8.46;100.00;149589.19;5029173;28;20078;-73
2022/12/22 09:22:06;;;;;;;243.37;39.17;;;;;;;8.52;100.00;149603.44;5048068;28;20499;-74
2022/12/22 09:24:32;;;;;;;245.03;38.77;;;;;;;8.56;100.00;149612.47;5034965;28;20049;-74
2022/12/22 09:26:57;;;;;;;235.67;36.70;;;;;;;8.59;100.00;149621.50;5043686;28;20108;-74
2022/12/22 09:29:22;;;;;;;234.60;36.83;;;;;;;8.69;100.00;149647.38;5040508;28;20801;-74
2022/12/22 09:31:48;;;;;;;198.87;35.30;;;;;;;8.77;100.00;149668.09;5032006;28;20073;-74
2022/12/22 09:34:13;;;;;;;200.03;35.77;;;;;;;8.71;100.00;149652.53;5030953;28;20021;-73
2022/12/22 09:36:40;;;;;;;188.17;33.70;;;;;;;8.71;100.00;149652.53;5036710;28;20037;-74
2022/12/22 09:39:07;;;;;;;180.43;34.07;;;;;;;8.67;100.00;149642.22;5030995;28;20396;-74
2022/12/22 09:41:45;;;;;;;196.37;35.23;;;;;;;8.71;100.00;149651.25;5032276;28;20025;-74
2022/12/22 09:44:25;;;;;;;180.07;33.77;;;;;;;8.69;100.00;149647.38;5032605;28;20112;-74
2022/12/22 09:46:57;;;;;;;189.77;35.00;;;;;;;8.82;100.00;149679.72;5037475;28;20037;-73
2022/12/22 09:49:23;;;;;;;166.57;33.53;;;;;;;8.80;100.00;149675.84;5030015;28;20025;-73
2022/12/22 09:51:53;;;;;;;170.87;33.03;;;;;;;8.90;100.00;149699.13;5032227;28;20029;-74
2022/12/22 09:54:19;;;;;;;155.10;32.63;;;;;;;8.99;100.00;149722.41;5025042;28;20080;-73
2022/12/22 09:56:44;;;;;;;150.77;30.40;;;;;;;9.00;100.00;149726.28;5032511;28;20128;-75
2022/12/22 09:59:20;;;;;;;144.57;31.17;;;;;;;8.97;100.00;149717.25;5023717;28;20030;-74
2022/12/22 10:01:58;;;;;;;137.57;31.53;;;;;;;8.99;100.00;149722.41;5030112;28;20037;-72
2022/12/22 10:04:35;;;;;;;135.50;28.77;;;;;;;8.95;100.00;149712.03;5023625;28;20022;-74
2022/12/22 10:07:03;;;;;;;128.43;29.27;;;;;;;8.93;100.00;149706.88;5025498;28;20029;-75
2022/12/22 10:09:31;;;;;;;126.47;28.93;;;;;;;8.87;100.00;149691.38;5025920;28;20049;-74
2022/12/22 10:11:59;;;;;;;136.17;30.67;;;;;;;8.90;100.00;149699.13;5030026;28;20059;-74
2022/12/22 10:14:32;;;;;;;129.30;30.63;;;;;;;8.99;100.00;149722.41;5037348;28;20017;-74
2022/12/22 10:17:22;;;;;;;116.87;27.63;;;;;;;8.95;100.00;149713.34;5050540;28;20029;-74
2022/12/22 10:19:50;;;;;;;122.13;29.40;;;;;;;9.11;100.00;149753.47;5033990;28;20001;-77
2022/12/22 10:22:30;;;;;;;101.20;26.10;;;;;;;9.14;100.00;149759.94;5031831;28;20392;-74
2022/12/22 10:24:59;;;;;;;104.27;28.30;;;;;;;9.20;100.00;149776.72;5029490;28;20041;-74
2022/12/22 10:27:28;;;;;;;93.07;26.70;;;;;;;9.19;100.00;149774.13;5031971;28;20021;-74
2022/12/22 10:29:53;;;;;;;87.63;26.27;;;;;;;9.16;100.00;149766.38;5031442;28;20064;-74
2022/12/22 10:32:20;;;;;;;88.03;25.37;;;;;;;9.17;100.00;149767.69;5031068;28;20057;-74
2022/12/22 10:35:02;;;;;;;80.43;24.50;;;;;;;9.37;100.00;149820.72;5029869;28;20029;-74
2022/12/22 10:37:33;;;;;;;73.20;24.05;;;;;;;9.48;100.00;149846.63;5031763;28;20468;-74
2022/12/22 10:40:12;;;;;;;64.57;21.13;;;;;;;9.59;100.00;149875.09;5029378;28;20129;-74
2022/12/22 10:42:43;;;;;;;63.23;21.47;;;;;;;9.65;100.00;149891.88;5031627;28;20014;-75
2022/12/22 10:45:17;;;;;;;55.30;19.48;;;;;;;9.69;100.00;149900.94;5031776;28;20017;-74
2022/12/22 10:47:47;;;;;;;52.77;21.57;;;;;;;10.04;100.00;149988.97;5032072;28;20714;-74
2022/12/22 10:50:12;;;;;;;37.30;15.60;;;;;;;9.66;100.00;149894.47;5027788;28;20032;-72
2022/12/22 10:52:38;;;;;;;38.07;16.90;;;;;;;9.62;100.00;149884.13;5033803;28;20380;-73
2022/12/22 10:55:25;;;;;;;38.47;17.60;;;;;;;9.71;100.00;149906.16;5033674;28;20109;-74
2022/12/22 10:58:05;;;;;;;33.47;16.17;;;;;;;9.82;100.00;149933.34;5024455;28;20097;-74
2022/12/22 11:00:31;;;;;;;37.63;15.37;;;;;;;9.93;100.00;149963.13;5025911;28;20026;-73
2022/12/22 11:02:58;;;;;;;32.47;16.33;;;;;;;9.82;100.00;149934.63;5029931;28;20531;-74
2022/12/22 11:05:24;;;;;;;31.03;14.63;;;;;;;9.88;100.00;149950.13;5030443;28;20125;-73
2022/12/22 11:07:49;;;;;;;31.37;14.77;;;;;;;9.88;100.00;149950.13;5037537;28;20092;-74
2022/12/22 11:10:16;;;;;;;29.67;14.80;;;;;;;9.73;100.00;149911.31;5039088;28;20056;-75
2022/12/22 11:12:54;;;;;;;27.60;12.30;;;;;;;9.66;100.00;149894.47;5034314;28;20038;-74
2022/12/22 11:15:33;;;;;;;28.67;13.50;;;;;;;9.62;100.00;149882.84;5037115;28;20017;-73
2022/12/22 11:18:17;;;;;;;30.83;14.83;;;;;;;9.61;100.00;149880.25;5033579;28;20033;-73
2022/12/22 11:21:02;;;;;;;26.60;13.17;;;;;;;9.45;100.00;149840.16;5050233;28;20024;-73
2022/12/22 11:23:30;;;;;;;29.50;12.97;;;;;;;9.33;100.00;149810.41;5038228;28;20052;-73
2022/12/22 11:26:14;;;;;;;24.67;11.93;;;;;;;9.36;100.00;149818.16;5038590;28;20485;-73
2022/12/22 11:28:52;;;;;;;26.00;12.07;;;;;;;9.33;100.00;149810.41;5034624;28;20116;-74
2022/12/22 11:31:38;;;;;;;23.33;11.50;;;;;;;9.35;100.00;149815.56;5032021;28;20025;-73
2022/12/22 11:34:18;;;;;;;25.83;11.93;;;;;;;9.38;100.00;149823.31;5031550;28;20064;-73
2022/12/22 11:36:57;;;;;;;25.97;11.37;;;;;;;9.34;100.00;149811.69;5026594;28;20560;-73
2022/12/22 11:39:32;;;;;;;21.63;9.50;;;;;;;9.24;100.00;149787.09;5029224;28;20032;-74
2022/12/22 11:42:09;;;;;;;23.70;9.70;;;;;;;9.16;100.00;149766.38;5037221;28;20101;-74
2022/12/22 11:44:50;;;;;;;22.07;9.27;;;;;;;9.07;100.00;149744.38;5035997;28;20026;-74
2022/12/22 11:47:30;;;;;;;21.17;9.20;;;;;;;8.95;100.00;149712.03;5032555;28;20036;-74
2022/12/22 11:50:37;;;;;;;24.10;10.37;;;;;;;9.02;100.00;149730.16;5031998;28;20115;-74
2022/12/22 11:53:18;;;;;;;24.20;10.10;;;;;;;9.13;100.00;149757.34;4991531;28;20037;-73
2022/12/22 11:56:06;;;;;;;18.13;8.33;;;;;;;9.19;100.00;149772.84;5024284;28;20476;-74
2022/12/22 11:58:51;;;;;;;17.83;8.47;;;;;;;9.18;100.00;149771.53;5018948;28;20052;-72
2022/12/22 12:01:44;;;;;;;21.87;7.63;;;;;;;9.18;100.00;149771.53;5033303;28;20122;-75
2022/12/22 12:04:40;;;;;;;15.40;6.30;;;;;;;9.21;100.00;149779.34;5033986;28;20021;-73
2022/12/22 12:07:24;;;;;;;15.17;7.20;;;;;;;9.15;100.00;149763.78;5033698;28;20033;-74
2022/12/22 12:09:54;;;;;;;18.53;7.70;;;;;;;9.23;100.00;149784.50;5031386;28;20056;-73
2022/12/22 12:12:41;;;;;;;18.90;8.73;;;;;;;9.21;100.00;149778.06;5023882;28;20053;-73
2022/12/22 12:15:30;;;;;;;17.53;7.17;;;;;;;9.18;100.00;149771.53;5032618;28;20142;-69
2022/12/22 12:18:11;;;;;;;16.53;6.13;;;;;;;9.21;100.00;149778.06;5015735;28;20591;-67
2022/12/22 12:21:09;;;;;;;16.95;6.47;;;;;;;9.23;100.00;149784.50;5023010;28;20065;-67
2022/12/22 12:23:51;;;;;;;16.13;5.70;;;;;;;9.16;100.00;149765.09;5022770;28;20090;-67
2022/12/22 12:26:22;;;;;;;;;;;;;;;9.18;100.00;149770.25;5028387;28;20061;-68
2022/12/22 12:28:50;;;;;;;15.70;4.68;;;;;;;9.09;100.00;149748.31;5024579;28;20327;-67
2022/12/22 12:31:23;;;;;;;13.93;6.17;;;;;;;9.04;100.00;149736.63;5031407;28;20138;-68
2022/12/22 12:33:53;;;;;;;16.37;6.73;;;;;;;9.13;100.00;149758.63;5028113;28;20033;-68
2022/12/22 12:36:38;;;;;;;19.07;7.83;;;;;;;9.15;100.00;149763.78;5029321;28;20608;-67
2022/12/22 12:39:32;;;;;;;14.83;7.13;;;;;;;9.08;100.00;149746.97;5030802;28;20025;-67
2022/12/22 12:42:19;;;;;;;17.10;6.70;;;;;;;9.12;100.00;149756.06;5028631;28;20030;-67
2022/12/22 12:44:45;;;;;;;15.73;5.73;;;;;;;9.07;100.00;149743.09;5022754;28;20022;-67
2022/12/22 12:47:29;;;;;;;12.23;5.30;;;;;;;9.08;100.00;149745.66;5029280;28;20032;-67
2022/12/22 12:50:43;;;;;;;14.77;5.97;;;;;;;9.05;100.00;149737.91;5030323;28;20029;-68
2022/12/22 12:53:09;;;;;;;17.20;6.33;;;;;;;9.00;100.00;149725.00;5016545;28;20044;-68
2022/12/22 12:55:38;;;;;;;12.37;5.30;;;;;;;8.98;100.00;149719.84;5025276;28;20030;-67
2022/12/22 12:58:09;;;;;;;15.20;4.73;;;;;;;9.03;100.00;149732.75;5039745;28;20401;-67
2022/12/22 13:00:36;;;;;;;14.45;5.78;;;;;;;8.99;100.00;149722.41;5035433;28;20051;-67
2022/12/22 13:03:09;;;;;;;18.60;6.00;;;;;;;8.95;100.00;149712.03;5029331;28;20029;-67
2022/12/22 13:06:00;;;;;;;16.90;5.90;;;;;;;8.99;100.00;149722.41;5029720;28;20029;-67
2022/12/22 13:08:55;;;;;;;14.20;5.50;;;;;;;8.88;100.00;149693.97;5029977;28;20041;-67
2022/12/22 13:11:49;;;;;;;13.60;6.53;;;;;;;8.85;100.00;149686.22;5018184;28;20474;-67
2022/12/22 13:14:51;;;;;;;18.33;6.03;;;;;;;8.83;100.00;149682.28;5023446;28;20116;-67
2022/12/22 13:17:37;;;;;;;20.17;6.83;;;;;;;8.80;100.00;149675.84;5027918;28;20041;-68
2022/12/22 13:20:04;;;;;;;16.63;4.97;;;;;;;8.75;100.00;149662.94;5002975;28;20072;-68
2022/12/22 13:22:31;;;;;;;18.83;6.30;;;;;;;8.62;100.00;149629.31;5021219;28;20382;-67
2022/12/22 13:25:00;;;;;;;18.83;6.50;;;;;;;8.59;100.00;149620.22;5027465;28;20037;-67
2022/12/22 13:27:27;;;;;;;13.97;5.37;;;;;;;8.53;100.00;149606.03;5020739;28;20079;-67
2022/12/22 13:29:53;;;;;;;17.03;6.43;;;;;;;8.47;100.00;149591.78;5026193;28;20389;-67
2022/12/22 13:32:32;;;;;;;18.33;6.70;;;;;;;8.45;100.00;149585.31;5020484;28;20064;-68
2022/12/22 13:35:03;;;;;;;14.60;5.20;;;;;;;8.42;100.00;149578.88;5022350;28;20029;-68
2022/12/22 13:37:29;;;;;;;19.15;7.47;;;;;;;8.47;100.00;149590.47;5020860;28;20044;-67
2022/12/22 13:40:17;;;;;;;18.67;7.00;;;;;;;8.40;100.00;149572.41;5024220;28;20033;-68
2022/12/22 13:42:53;;;;;;;14.90;5.67;;;;;;;8.40;100.00;149573.69;5022490;28;20499;-68
2022/12/22 13:45:48;;;;;;;16.53;6.83;;;;;;;8.40;100.00;149572.41;5023916;28;20108;-68
2022/12/22 13:48:33;;;;;;;17.53;6.37;;;;;;;8.41;100.00;149576.28;5015432;28;20132;-67
2022/12/22 13:51:02;;;;;;;15.17;6.67;;;;;;;8.28;100.00;149542.63;5024714;28;20536;-67
2022/12/22 13:53:39;;;;;;;19.03;6.20;;;;;;;8.38;100.00;149568.53;5028186;28;20472;-67
2022/12/22 13:56:07;;;;;;;15.10;6.97;;;;;;;8.34;100.00;149556.81;5028799;28;20111;-68
2022/12/22 13:58:38;;;;;;;17.67;5.83;;;;;;;8.26;100.00;149537.47;5028055;28;20576;-67
2022/12/22 14:01:10;;;;;;;15.25;5.72;;;;;;;8.29;100.00;149543.91;5025811;28;20473;-68
2022/12/22 14:03:36;;;;;;;18.75;5.53;;;;;;;8.30;100.00;149547.78;5020656;28;20048;-68
2022/12/22 14:06:02;;;;;;;18.03;6.80;;;;;;;8.17;100.00;149515.47;5020826;28;20043;-67
2022/12/22 14:08:27;;;;;;;21.20;7.27;;;;;;;7.99;100.00;149468.94;5027964;28;20130;-68
2022/12/22 14:10:54;;;;;;;22.93;7.80;;;;;;;7.94;100.00;149456.00;5021394;28;20029;-68
2022/12/22 14:13:28;;;;;;;19.27;6.57;;;;;;;7.95;100.00;149458.59;5024739;28;20025;-67
2022/12/22 14:16:01;;;;;;;18.90;7.47;;;;;;;7.85;100.00;149434.03;5027075;28;20397;-68
2022/12/22 14:18:27;;;;;;;17.73;6.23;;;;;;;7.93;100.00;149453.44;5023406;28;20095;-68
2022/12/22 14:20:53;;;;;;;23.07;7.37;;;;;;;7.88;100.00;149440.53;5004999;28;20520;-68
2022/12/22 14:23:23;;;;;;;21.77;7.37;;;;;;;7.82;100.00;149425.00;5024931;28;20060;-68
2022/12/22 14:25:51;;;;;;;22.70;7.57;;;;;;;7.82;100.00;149425.00;5032044;28;20029;-68
2022/12/22 14:28:31;;;;;;;22.73;8.33;;;;;;;7.72;100.00;149399.16;5028211;28;20030;-68
2022/12/22 14:30:58;;;;;;;27.10;8.50;;;;;;;7.65;100.00;149382.38;5023967;28;20033;-67
2022/12/22 14:33:26;;;;;;;17.97;7.60;;;;;;;7.64;100.00;149381.09;5024187;28;20082;-68
2022/12/22 14:36:14;;;;;;;19.23;8.27;;;;;;;7.59;100.00;149368.16;5023561;28;20025;-68
2022/12/22 14:38:48;;;;;;;23.67;7.50;;;;;;;7.54;100.00;149355.25;5025180;28;20173;-68
2022/12/22 14:44:11;;;;;;;;;;;;;;;7.64;100.00;149379.81;5024822;28;20449;-68
2022/12/22 14:46:36;;;;;;;21.20;7.50;;;;;;;7.61;100.00;149373.31;5027279;28;20289;-67
2022/12/22 14:49:02;;;;;;;21.23;7.43;;;;;;;7.55;100.00;149356.53;5025039;28;20034;-68
2022/12/22 14:51:27;;;;;;;19.47;6.73;;;;;;;7.60;100.00;149370.72;5020237;28;20034;-68
2022/12/22 14:53:56;;;;;;;21.20;7.27;;;;;;;7.62;100.00;149375.88;5026930;28;20061;-68
2022/12/22 14:56:22;;;;;;;21.40;8.00;;;;;;;7.52;100.00;149350.09;5026954;28;20025;-68
2022/12/22 14:58:49;;;;;;;21.67;7.13;;;;;;;7.52;100.00;149350.09;5022718;28;20127;-67
2022/12/22 15:01:26;;;;;;;25.07;7.73;;;;;;;7.47;100.00;149335.84;5025287;28;20029;-68
2022/12/22 15:04:16;;;;;;;19.73;7.30;;;;;;;7.42;100.00;149322.97;5019312;28;20025;-67